Time;durP1;ratioP1;P1;durP2;ratioP2;P2;SDS_P1;SDS_P2;PMS_P1;PMS_P2;Temp;Humidity;BMP_temperature;BMP_pressure;BME280_temperature;BME280_humidity;BME280_pressure;Samples;Min_cycle;Max_cycle;Signal;HPM_P1;HPM_P2
2023/03/21 06:00:10;;;;;;;;;6.50;5.00;;;;;-147.14;100.00;58812.66;6113290;22;45565;31
2023/03/21 06:02:37;;;;;;;;;6.00;6.00;;;;;-147.14;100.00;58812.66;4977582;28;45295;-60
2023/03/21 06:05:03;;;;;;;;;4.00;4.00;;;;;-147.14;100.00;58812.66;4980018;28;45569;-60
2023/03/21 06:07:28;;;;;;;;;6.33;6.00;;;;;-147.14;100.00;58812.66;4985309;28;46193;-60
2023/03/21 06:09:54;;;;;;;;;8.00;5.00;;;;;-147.14;100.00;58812.66;4979456;28;45319;-60
2023/03/21 06:12:19;;;;;;;;;5.67;5.67;;;;;-147.14;100.00;58812.66;4979819;28;45523;-59
2023/03/21 06:14:44;;;;;;;;;5.67;5.67;;;;;-147.14;100.00;58812.66;4997842;28;69032;-60
2023/03/21 06:17:10;;;;;;;;;8.00;5.00;;;;;-147.14;100.00;58812.66;4979695;28;46096;-59
2023/03/21 06:19:35;;;;;;;;;5.33;5.33;;;;;-147.14;100.00;58812.66;4987506;28;59248;-60
2023/03/21 06:22:00;;;;;;;;;5.33;5.33;;;;;-147.14;100.00;58812.66;4949123;28;45570;-59
2023/03/21 06:24:26;;;;;;;;;7.33;5.33;;;;;-147.14;100.00;58812.66;4979090;28;63830;-59
2023/03/21 06:26:51;;;;;;;;;6.00;6.00;;;;;-147.14;100.00;58812.66;4975145;28;75428;-59
2023/03/21 06:29:16;;;;;;;;;6.67;6.67;;;;;-147.14;100.00;58812.66;4979916;28;69807;-59
2023/03/21 06:31:42;;;;;;;;;9.33;6.00;;;;;-147.14;100.00;58812.66;4979442;28;68944;-60
2023/03/21 06:34:09;;;;;;;;;7.33;6.00;;;;;-147.14;100.00;58812.66;4979499;28;45512;-60
2023/03/21 06:36:35;;;;;;;;;7.00;5.67;;;;;-147.14;100.00;58812.66;4975796;28;45380;-59
2023/03/21 06:39:00;;;;;;;;;5.00;5.00;;;;;-147.14;100.00;58812.66;4976871;28;46370;-58
2023/03/21 06:41:26;;;;;;;;;7.00;5.00;;;;;-147.14;100.00;58812.66;4959851;28;46029;-59
2023/03/21 06:43:51;;;;;;;;;12.00;7.00;;;;;-147.14;100.00;58812.66;4983690;28;45429;-59
2023/03/21 06:46:17;;;;;;;;;9.67;7.33;;;;;-147.14;100.00;58812.66;4970528;28;46000;-59
2023/03/21 06:48:43;;;;;;;;;10.00;7.67;;;;;-147.14;100.00;58812.66;4983203;28;68456;-59
2023/03/21 06:51:13;;;;;;;;;9.67;9.67;;;;;-147.14;100.00;58812.66;4988917;28;45674;-59
2023/03/21 06:53:40;;;;;;;;;8.00;8.00;;;;;-147.14;100.00;58812.66;4978786;28;45680;-59
2023/03/21 06:56:06;;;;;;;;;10.00;9.00;;;;;-147.14;100.00;58812.66;4980206;28;45915;-59
2023/03/21 06:58:32;;;;;;;;;9.33;8.00;;;;;-147.14;100.00;58812.66;4970155;28;45386;-59
2023/03/21 07:00:58;;;;;;;;;7.00;7.00;;;;;-147.14;100.00;58812.66;4972681;28;45373;-60
2023/03/21 07:03:24;;;;;;;;;4.33;4.33;;;;;-147.14;100.00;58812.66;4970264;28;45613;-59
2023/03/21 07:05:49;;;;;;;;;8.00;6.00;;;;;-147.14;100.00;58812.66;4970176;28;46890;-60
2023/03/21 07:08:16;;;;;;;;;7.33;7.00;;;;;-147.14;100.00;58812.66;4971557;28;45346;-59
2023/03/21 07:10:42;;;;;;;;;10.67;8.00;;;;;-147.14;100.00;58812.66;4975936;28;45247;-60
2023/03/21 07:13:07;;;;;;;;;9.67;8.00;;;;;-147.14;100.00;58812.66;4943964;28;45470;-59
2023/03/21 07:15:36;;;;;;;;;7.33;6.00;;;;;-147.14;100.00;58812.66;4969119;28;45595;-59
2023/03/21 07:18:02;;;;;;;;;11.33;9.00;;;;;-147.14;100.00;58812.66;4960734;28;45568;-59
2023/03/21 07:20:27;;;;;;;;;6.67;6.67;;;;;-147.14;100.00;58812.66;4946697;28;45356;-60
2023/03/21 07:22:53;;;;;;;;;9.00;9.00;;;;;-147.14;100.00;58812.66;4974075;28;45379;-60
2023/03/21 07:25:19;;;;;;;;;10.33;9.00;;;;;-147.14;100.00;58812.66;4970787;28;75726;-59
2023/03/21 07:27:45;;;;;;;;;20.00;16.00;;;;;-147.14;100.00;58812.66;4956726;28;45284;-52
2023/03/21 07:30:11;;;;;;;;;7.00;7.00;;;;;-147.14;100.00;58812.66;4969542;28;45569;-53
2023/03/21 07:32:38;;;;;;;;;9.00;8.00;;;;;-147.14;100.00;58812.66;4967750;28;45485;-53
2023/03/21 07:35:05;;;;;;;;;11.33;9.67;;;;;-147.14;100.00;58812.66;4961296;28;45530;-49
2023/03/21 07:37:30;;;;;;;;;8.67;8.67;;;;;-147.14;100.00;58812.66;4966903;28;45352;-52
2023/03/21 07:39:56;;;;;;;;;3.67;3.00;;;;;-147.14;100.00;58812.66;4964087;28;69456;-51
2023/03/21 07:42:21;;;;;;;;;9.00;9.00;;;;;-147.14;100.00;58812.66;4951094;28;49312;-51
2023/03/21 07:44:46;;;;;;;;;9.33;8.33;;;;;-147.14;100.00;58812.66;4950513;28;74151;-54
2023/03/21 07:47:12;;;;;;;;;7.00;6.33;;;;;-147.14;100.00;58812.66;4962929;28;46852;-51
2023/03/21 07:49:37;;;;;;;;;8.33;8.33;;;;;-147.14;100.00;58812.66;4965702;28;65625;-54
2023/03/21 07:52:03;;;;;;;;;10.00;10.00;;;;;-147.14;100.00;58812.66;4968662;28;52127;-53
2023/03/21 07:54:29;;;;;;;;;10.00;8.33;;;;;-147.14;100.00;58812.66;4968569;28;46293;-52
2023/03/21 07:56:55;;;;;;;;;2.67;2.00;;;;;-147.14;100.00;58812.66;4952040;28;45379;-52
2023/03/21 07:59:20;;;;;;;;;9.33;8.00;;;;;-147.14;100.00;58812.66;4955603;28;45433;-51
2023/03/21 08:01:46;;;;;;;;;9.00;8.33;;;;;-147.14;100.00;58812.66;4958737;28;62505;-51
2023/03/21 08:04:11;;;;;;;;;11.00;10.67;;;;;-147.14;100.00;58812.66;4956975;28;74033;-54
2023/03/21 08:06:36;;;;;;;;;8.33;8.33;;;;;-147.14;100.00;58812.66;4945380;28;71729;-50
2023/03/21 08:09:02;;;;;;;;;10.67;9.00;;;;;-147.14;100.00;58812.66;4953046;28;45533;-52
2023/03/21 08:11:30;;;;;;;;;7.33;7.00;;;;;-147.14;100.00;58812.66;4974273;28;46359;-54
2023/03/21 08:13:56;;;;;;;;;10.00;8.67;;;;;-147.14;100.00;58812.66;4960091;28;45748;-54
2023/03/21 08:16:22;;;;;;;;;8.67;8.00;;;;;-147.14;100.00;58812.66;4951978;28;45389;-53
2023/03/21 08:18:47;;;;;;;;;10.67;10.67;;;;;-147.14;100.00;58812.66;4955485;28;45733;-51
2023/03/21 08:21:12;;;;;;;;;11.33;10.67;;;;;-147.14;100.00;58812.66;4958569;28;45343;-53
2023/03/21 08:23:38;;;;;;;;;14.33;10.00;;;;;-147.14;100.00;58812.66;4959543;28;46006;-51
2023/03/21 08:26:03;;;;;;;;;9.67;9.33;;;;;-147.14;100.00;58812.66;4955804;28;45481;-51
2023/03/21 08:28:29;;;;;;;;;9.33;8.00;;;;;-147.14;100.00;58812.66;4943645;28;45320;-53
2023/03/21 08:30:54;;;;;;;;;16.67;16.00;;;;;-147.14;100.00;58812.66;4963463;28;45544;-52
2023/03/21 08:33:20;;;;;;;;;10.00;8.00;;;;;-147.14;100.00;58812.66;4957843;28;71410;-54
2023/03/21 08:35:46;;;;;;;;;7.67;7.67;;;;;-147.14;100.00;58812.66;4974458;28;45553;-51
2023/03/21 08:38:11;;;;;;;;;12.33;9.00;;;;;-147.14;100.00;58812.66;4956068;28;45445;-53
2023/03/21 08:40:37;;;;;;;;;10.00;8.00;;;;;-147.14;100.00;58812.66;4957807;28;45545;-53
2023/03/21 08:43:02;;;;;;;;;12.00;10.67;;;;;-147.14;100.00;58812.66;4957053;28;46075;-53
2023/03/21 08:45:28;;;;;;;;;14.00;11.00;;;;;-147.14;100.00;58812.66;4961138;28;68811;-53
2023/03/21 08:47:53;;;;;;;;;11.00;9.67;;;;;-147.14;100.00;58812.66;4941375;28;45361;-55
2023/03/21 08:50:21;;;;;;;;;11.33;10.00;;;;;-147.14;100.00;58812.66;4957663;28;45433;-53
2023/03/21 08:52:47;;;;;;;;;12.67;12.00;;;;;-147.14;100.00;58812.66;4958045;28;47071;-53
2023/03/21 08:55:14;;;;;;;;;13.33;11.00;;;;;-147.14;100.00;58812.66;4957492;28;46026;-52
2023/03/21 08:57:40;;;;;;;;;11.00;8.33;;;;;-147.14;100.00;58812.66;4958511;28;45629;-54
2023/03/21 09:00:11;;;;;;;;;7.33;7.00;;;;;-147.14;100.00;58812.66;4974180;28;45258;-52
2023/03/21 09:02:37;;;;;;;;;7.67;6.67;;;;;-147.14;100.00;58812.66;4959061;28;46462;-51
2023/03/21 09:05:03;;;;;;;;;3.00;3.00;;;;;-147.14;100.00;58812.66;4962988;28;45647;-53
2023/03/21 09:07:28;;;;;;;;;5.67;5.67;;;;;-147.14;100.00;58812.66;4960214;28;45796;-52
2023/03/21 09:09:53;;;;;;;;;9.00;6.00;;;;;-147.14;100.00;58812.66;4960297;28;45394;-52
2023/03/21 09:12:19;;;;;;;;;5.33;5.33;;;;;-147.14;100.00;58812.66;4961101;28;46414;-52
2023/03/21 09:14:44;;;;;;;;;4.00;4.00;;;;;-147.14;100.00;58812.66;4959240;28;45496;-52
2023/03/21 09:17:10;;;;;;;;;5.00;5.00;;;;;-147.14;100.00;58812.66;4959455;28;45359;-54
2023/03/21 09:19:37;;;;;;;;;8.00;5.33;;;;;-147.14;100.00;58812.66;4963309;28;45540;-50
2023/03/21 09:22:03;;;;;;;;;7.33;7.00;;;;;-147.14;100.00;58812.66;4959006;28;45669;-52
2023/03/21 09:24:29;;;;;;;;;7.00;7.00;;;;;-147.14;100.00;58812.66;4958811;28;44978;-50
2023/03/21 09:26:55;;;;;;;;;12.33;10.33;;;;;-147.14;100.00;58812.66;4958730;28;45720;-50
2023/03/21 09:29:21;;;;;;;;;5.00;5.00;;;;;-147.14;100.00;58812.66;4958337;28;45473;-53
2023/03/21 09:31:47;;;;;;;;;5.33;5.33;;;;;-147.14;100.00;58812.66;4957386;28;45690;-52
2023/03/21 09:34:14;;;;;;;;;7.33;7.33;;;;;-147.14;100.00;58812.66;4968436;28;45264;-57
2023/03/21 09:36:41;;;;;;;;;9.67;6.00;;;;;-147.14;100.00;58812.66;4960748;28;45650;-57
2023/03/21 09:39:07;;;;;;;;;6.67;5.33;;;;;-147.14;100.00;58812.66;4957357;28;45249;-57
2023/03/21 09:41:59;;;;;;;;;7.00;5.00;;;;;-147.14;100.00;58812.66;4957951;28;45495;-57
2023/03/21 09:44:40;;;;;;;;;9.67;5.33;;;;;-147.14;100.00;58812.66;4924673;28;45340;-58
2023/03/21 09:47:19;;;;;;;;;5.33;5.33;;;;;-147.14;100.00;58812.66;4956525;28;45615;-58
2023/03/21 09:49:58;;;;;;;;;7.67;7.00;;;;;-147.14;100.00;58812.66;4950094;28;45448;-57
2023/03/21 09:52:28;;;;;;;;;6.67;5.67;;;;;-147.14;100.00;58812.66;4957365;28;46309;-57
2023/03/21 09:54:55;;;;;;;;;4.33;3.33;;;;;-147.14;100.00;58812.66;4955796;28;45256;-58
2023/03/21 09:57:31;;;;;;;;;5.00;3.33;;;;;-147.14;100.00;58812.66;4956401;28;45602;-57
2023/03/21 10:00:07;;;;;;;;;6.00;4.33;;;;;-147.14;100.00;58812.66;4957024;28;45824;-58
2023/03/21 10:02:45;;;;;;;;;5.00;5.00;;;;;-147.14;100.00;58812.66;4976758;28;46540;-59
2023/03/21 10:05:21;;;;;;;;;3.67;3.67;;;;;-147.14;100.00;58812.66;4973848;28;45955;-58
2023/03/21 10:08:03;;;;;;;;;5.33;5.33;;;;;-147.14;100.00;58812.66;4991409;28;45398;-58
2023/03/21 10:10:32;;;;;;;;;5.00;5.00;;;;;-147.14;100.00;58812.66;4992694;28;45422;-57
2023/03/21 10:12:57;;;;;;;;;4.33;3.00;;;;;-147.14;100.00;58812.66;4957499;28;46351;-57
2023/03/21 10:15:24;;;;;;;;;22.33;19.33;;;;;-147.14;100.00;58812.66;4975894;28;58780;-58
2023/03/21 10:18:02;;;;;;;;;6.00;6.00;;;;;-147.14;100.00;58812.66;4990951;28;45389;-58
2023/03/21 10:20:33;;;;;;;;;4.67;3.33;;;;;-147.14;100.00;58812.66;4991983;28;45509;-58
2023/03/21 10:23:00;;;;;;;;;4.33;4.33;;;;;-147.14;100.00;58812.66;4976474;28;46292;-58
2023/03/21 10:25:39;;;;;;;;;6.00;5.00;;;;;-147.14;100.00;58812.66;4977626;28;45415;-58
2023/03/21 10:28:06;;;;;;;;;13.67;7.00;;;;;-147.14;100.00;58812.66;4937298;28;45869;-58
2023/03/21 10:30:41;;;;;;;;;5.00;5.00;;;;;-147.14;100.00;58812.66;4949759;28;45779;-58
2023/03/21 10:33:11;;;;;;;;;5.67;5.00;;;;;-147.14;100.00;58812.66;4993921;28;46346;-58
2023/03/21 10:35:38;;;;;;;;;6.33;5.00;;;;;-147.14;100.00;58812.66;4971969;28;45350;-58
2023/03/21 10:38:04;;;;;;;;;5.33;4.00;;;;;-147.14;100.00;58812.66;4976395;28;46334;-58
2023/03/21 10:40:30;;;;;;;;;5.33;4.67;;;;;-147.14;100.00;58812.66;4957482;28;45735;-58
2023/03/21 10:42:56;;;;;;;;;2.00;2.00;;;;;-147.14;100.00;58812.66;4979071;28;45971;-58
2023/03/21 10:45:23;;;;;;;;;5.67;4.33;;;;;-147.14;100.00;58812.66;4966099;28;45515;-58
2023/03/21 10:47:49;;;;;;;;;5.00;5.00;;;;;-147.14;100.00;58812.66;4963915;28;67433;-58
2023/03/21 10:50:19;;;;;;;;;4.00;4.00;;;;;-147.14;100.00;58812.66;4980686;28;45297;-58
2023/03/21 10:52:49;;;;;;;;;4.00;4.00;;;;;-147.14;100.00;58812.66;4980296;28;47164;-58
2023/03/21 10:55:30;;;;;;;;;6.33;5.00;;;;;-147.14;100.00;58812.66;4962490;28;45272;-58
2023/03/21 10:58:09;;;;;;;;;3.33;3.33;;;;;-147.14;100.00;58812.66;4979753;28;45482;-58
2023/03/21 11:00:38;;;;;;;;;6.00;4.67;;;;;-147.14;100.00;58812.66;4995590;28;45520;-59
2023/03/21 11:03:04;;;;;;;;;4.00;4.00;;;;;-147.14;100.00;58812.66;4966029;28;46309;-58
2023/03/21 11:05:35;;;;;;;;;7.33;6.00;;;;;-147.14;100.00;58812.66;4982651;28;45473;-59
2023/03/21 11:08:10;;;;;;;;;6.33;5.00;;;;;-147.14;100.00;58812.66;4979059;28;45455;-58
2023/03/21 11:10:47;;;;;;;;;6.33;5.00;;;;;-147.14;100.00;58812.66;4958696;28;45453;-59
2023/03/21 11:13:18;;;;;;;;;4.00;4.00;;;;;-147.14;100.00;58812.66;5001373;28;45808;-58
2023/03/21 11:16:28;;;;;;;;;8.00;6.33;;;;;-147.14;100.00;58812.66;4991917;28;45751;-58
2023/03/21 11:18:59;;;;;;;;;4.33;4.33;;;;;-147.14;100.00;58812.66;4958918;28;45631;-56
2023/03/21 11:21:27;;;;;;;;;5.00;5.00;;;;;-147.14;100.00;58812.66;4961575;28;45444;-58
2023/03/21 11:23:53;;;;;;;;;4.00;4.00;;;;;-147.14;100.00;58812.66;4971661;28;47135;-61
2023/03/21 11:26:46;;;;;;;;;5.00;5.00;;;;;-147.14;100.00;58812.66;4946086;28;45549;-58
2023/03/21 11:29:21;;;;;;;;;6.00;6.00;;;;;-147.14;100.00;58812.66;4987299;28;45431;-58
2023/03/21 11:31:47;;;;;;;;;7.67;7.00;;;;;-147.14;100.00;58812.66;4969810;28;45508;-58
2023/03/21 11:34:25;;;;;;;;;8.00;7.33;;;;;-147.14;100.00;58812.66;4979269;28;68725;-58
2023/03/21 11:36:51;;;;;;;;;10.67;8.67;;;;;-147.14;100.00;58812.66;4995425;28;45453;-59
2023/03/21 11:39:29;;;;;;;;;8.67;8.67;;;;;-147.14;100.00;58812.66;4974430;28;54543;-59
2023/03/21 11:41:54;;;;;;;;;25.00;18.00;;;;;-147.14;100.00;58812.66;4958770;28;45429;-59
2023/03/21 11:44:32;;;;;;;;;8.67;7.33;;;;;-147.14;100.00;58812.66;4962747;28;46427;-61
2023/03/21 11:46:58;;;;;;;;;7.33;7.33;;;;;-147.14;100.00;58812.66;4977939;28;45374;-57
2023/03/21 11:49:25;;;;;;;;;7.00;7.00;;;;;-147.14;100.00;58812.66;4969876;28;45580;-56
2023/03/21 11:51:56;;;;;;;;;7.00;7.00;;;;;-147.14;100.00;58812.66;4972012;28;45512;-56
2023/03/21 11:54:24;;;;;;;;;10.33;7.67;;;;;-147.14;100.00;58812.66;4976572;28;46394;-56
2023/03/21 11:56:56;;;;;;;;;7.67;7.67;;;;;-147.14;100.00;58812.66;4974616;28;45468;-55
2023/03/21 11:59:21;;;;;;;;;6.00;6.00;;;;;-147.14;100.00;58812.66;4976110;28;45288;-54
2023/03/21 12:02:15;;;;;;;;;7.00;7.00;;;;;-147.14;100.00;58812.66;4973944;28;45540;-53
2023/03/21 12:04:43;;;;;;;;;9.00;7.33;;;;;-147.14;100.00;58812.66;4981252;28;45895;-64
2023/03/21 12:07:33;;;;;;;;;9.00;9.00;;;;;-147.14;100.00;58812.66;4976071;28;45520;-58
2023/03/21 12:10:16;;;;;;;;;6.00;6.00;;;;;-147.14;100.00;58812.66;4977002;28;45932;-59
2023/03/21 12:12:47;;;;;;;;;10.33;6.67;;;;;-147.14;100.00;58812.66;4946297;28;45372;-60
2023/03/21 12:15:21;;;;;;;;;6.00;5.00;;;;;-147.14;100.00;58812.66;4973045;28;47216;-71
2023/03/21 12:18:15;;;;;;;;;5.67;4.00;;;;;-147.14;100.00;58812.66;4958412;28;45408;-66
2023/03/21 12:20:47;;;;;;;;;7.67;5.33;;;;;-147.14;100.00;58812.66;4970477;28;45461;-68
2023/03/21 12:23:33;;;;;;;;;7.67;6.00;;;;;-147.14;100.00;58812.66;4978916;28;45585;-68
2023/03/21 12:26:03;;;;;;;;;12.33;7.67;;;;;-147.14;100.00;58812.66;4969980;28;45260;-73
2023/03/21 12:28:51;;;;;;;;;7.00;6.00;;;;;-147.14;100.00;58812.66;4992052;28;45441;-71
2023/03/21 12:31:38;;;;;;;;;11.67;7.33;;;;;-147.14;100.00;58812.66;4979921;28;45489;-64
2023/03/21 12:34:03;;;;;;;;;6.67;5.33;;;;;-147.14;100.00;58812.66;4972334;28;45677;-64
2023/03/21 12:36:47;;;;;;;;;6.00;6.00;;;;;-147.14;100.00;58812.66;4979924;28;45338;-66
2023/03/21 12:39:23;;;;;;;;;9.00;8.67;;;;;-147.14;100.00;58812.66;4978918;28;45476;-66
2023/03/21 12:41:55;;;;;;;;;10.00;8.00;;;;;-147.14;100.00;58812.66;4978302;28;45288;-70
2023/03/21 12:44:22;;;;;;;;;8.33;7.33;;;;;-147.14;100.00;58812.66;4982239;28;45571;-65
2023/03/21 12:47:00;;;;;;;;;6.00;6.00;;;;;-147.14;100.00;58812.66;4976868;28;45524;-67
2023/03/21 12:49:48;;;;;;;;;4.67;4.67;;;;;-147.14;100.00;58812.66;4957109;28;45497;-65
2023/03/21 12:52:17;;;;;;;;;6.33;5.00;;;;;-147.14;100.00;58812.66;4959626;28;45441;-64
2023/03/21 12:54:51;;;;;;;;;5.00;3.67;;;;;-147.14;100.00;58812.66;4987220;28;45393;-64
2023/03/21 12:57:20;;;;;;;;;5.33;5.33;;;;;-147.14;100.00;58812.66;4991856;28;45492;-64
2023/03/21 12:59:55;;;;;;;;;9.33;6.67;;;;;-147.14;100.00;58812.66;4989936;28;45569;-65
2023/03/21 13:02:22;;;;;;;;;6.00;6.00;;;;;-147.14;100.00;58812.66;4979275;28;46156;-65
2023/03/21 13:04:56;;;;;;;;;7.33;5.00;;;;;-147.14;100.00;58812.66;4986158;28;45498;-65
2023/03/21 13:07:24;;;;;;;;;3.00;3.00;;;;;-147.14;100.00;58812.66;4989767;28;46228;-65
2023/03/21 13:09:50;;;;;;;;;10.00;7.67;;;;;-147.14;100.00;58812.66;4976934;28;45466;-64
2023/03/21 13:12:32;;;;;;;;;6.00;5.67;;;;;-147.14;100.00;58812.66;4960775;28;45510;-65
2023/03/21 13:15:38;;;;;;;;;5.33;5.00;;;;;-147.14;100.00;58812.66;4977408;28;45408;-65
2023/03/21 13:18:22;;;;;;;;;6.00;6.00;;;;;-147.14;100.00;58812.66;4944106;28;45580;-66
2023/03/21 13:20:50;;;;;;;;;7.33;7.00;;;;;-147.14;100.00;58812.66;4978608;28;45204;-65
2023/03/21 13:23:17;;;;;;;;;7.00;7.00;;;;;-147.14;100.00;58812.66;4961401;28;45374;-64
2023/03/21 13:25:48;;;;;;;;;4.67;4.67;;;;;-147.14;100.00;58812.66;4956615;28;45553;-65
2023/03/21 13:28:25;;;;;;;;;8.00;6.00;;;;;-147.14;100.00;58812.66;4992807;28;46039;-64
2023/03/21 13:30:51;;;;;;;;;0.00;0.00;;;;;-147.14;100.00;58812.66;4975721;28;45420;-65
2023/03/21 13:33:28;;;;;;;;;7.33;5.00;;;;;-147.14;100.00;58812.66;4959878;28;45527;-64
2023/03/21 13:36:05;;;;;;;;;6.67;5.33;;;;;-147.14;100.00;58812.66;4958801;28;45750;-65
2023/03/21 13:38:33;;;;;;;;;4.00;4.00;;;;;-147.14;100.00;58812.66;4975683;28;46353;-65
2023/03/21 13:41:12;;;;;;;;;4.33;3.33;;;;;-147.14;100.00;58812.66;4975489;28;45603;-64
2023/03/21 13:43:41;;;;;;;;;4.00;4.00;;;;;-147.14;100.00;58812.66;4978073;28;45433;-64
2023/03/21 13:46:07;;;;;;;;;7.00;4.33;;;;;-147.14;100.00;58812.66;4985577;28;45408;-64
2023/03/21 13:48:42;;;;;;;;;5.33;4.00;;;;;-147.14;100.00;58812.66;4976094;28;46195;-66
2023/03/21 13:51:08;;;;;;;;;4.00;4.00;;;;;-147.14;100.00;58812.66;4979247;28;45537;-64
2023/03/21 13:53:38;;;;;;;;;4.33;4.33;;;;;-147.14;100.00;58812.66;4976440;28;68183;-64
2023/03/21 13:56:18;;;;;;;;;6.00;5.00;;;;;-147.14;100.00;58812.66;4960802;28;45425;-64
2023/03/21 13:58:43;;;;;;;;;5.00;4.00;;;;;-147.14;100.00;58812.66;4948206;28;45445;-65
2023/03/21 14:01:15;;;;;;;;;6.33;5.00;;;;;-147.14;100.00;58812.66;4991905;28;45523;-65
2023/03/21 14:03:42;;;;;;;;;3.00;3.00;;;;;-147.14;100.00;58812.66;4977873;28;45412;-65
2023/03/21 14:06:09;;;;;;;;;3.00;3.00;;;;;-147.14;100.00;58812.66;4959080;28;45436;-65
2023/03/21 14:08:35;;;;;;;;;3.00;3.00;;;;;-147.14;100.00;58812.66;4975401;28;45696;-65
2023/03/21 14:11:05;;;;;;;;;2.33;2.33;;;;;-147.14;100.00;58812.66;4991596;28;45484;-65
2023/03/21 14:13:30;;;;;;;;;2.00;2.00;;;;;-147.14;100.00;58812.66;4973467;28;45584;-58
2023/03/21 14:15:59;;;;;;;;;2.67;2.67;;;;;-147.14;100.00;58812.66;4976104;28;66278;-59
2023/03/21 14:18:26;;;;;;;;;3.00;3.00;;;;;-147.14;100.00;58812.66;4960606;28;47178;-58
2023/03/21 14:20:54;;;;;;;;;2.00;2.00;;;;;-147.14;100.00;58812.66;4962965;28;45766;-58
2023/03/21 14:23:19;;;;;;;;;1.00;1.00;;;;;-147.14;100.00;58812.66;4970296;28;45804;-58
2023/03/21 14:25:47;;;;;;;;;3.00;2.00;;;;;-147.14;100.00;58812.66;4977796;28;51069;-58
2023/03/21 14:28:26;;;;;;;;;1.33;1.33;;;;;-147.14;100.00;58812.66;4978636;28;45628;-59
2023/03/21 14:30:58;;;;;;;;;4.00;3.00;;;;;-147.14;100.00;58812.66;4994754;28;45557;-58
2023/03/21 14:33:35;;;;;;;;;1.00;1.00;;;;;-147.14;100.00;58812.66;4965789;28;45333;-59
2023/03/21 14:36:07;;;;;;;;;2.00;2.00;;;;;-147.14;100.00;58812.66;4976815;28;45480;-59
2023/03/21 14:38:35;;;;;;;;;2.00;2.00;;;;;-147.14;100.00;58812.66;4979367;28;46214;-58
2023/03/21 14:41:01;;;;;;;;;2.67;1.67;;;;;-147.14;100.00;58812.66;4961718;28;45520;-58
2023/03/21 14:43:27;;;;;;;;;2.00;2.00;;;;;-147.14;100.00;58812.66;4986089;28;45418;-58
2023/03/21 14:45:54;;;;;;;;;2.00;2.00;;;;;-147.14;100.00;58812.66;4980283;28;45618;-58
2023/03/21 14:48:27;;;;;;;;;2.00;2.00;;;;;-147.14;100.00;58812.66;4996013;28;45372;-59
2023/03/21 14:50:55;;;;;;;;;2.67;2.67;;;;;-147.14;100.00;58812.66;4988296;28;45433;-58
2023/03/21 14:53:24;;;;;;;;;2.00;2.00;;;;;-147.14;100.00;58812.66;4968734;28;45551;-59
2023/03/21 14:55:57;;;;;;;;;2.00;2.00;;;;;-147.14;100.00;58812.66;4963105;28;45607;-59
2023/03/21 14:58:23;;;;;;;;;1.67;1.00;;;;;-147.14;100.00;58812.66;4953509;28;47044;-59
2023/03/21 15:00:49;;;;;;;;;2.00;2.00;;;;;-147.14;100.00;58812.66;4993766;28;45543;-59
2023/03/21 15:03:17;;;;;;;;;0.00;0.00;;;;;-147.14;100.00;58812.66;4961453;28;45449;-59
2023/03/21 15:05:45;;;;;;;;;0.00;0.00;;;;;-147.14;100.00;58812.66;4983000;28;45469;-59
2023/03/21 15:08:10;;;;;;;;;0.00;0.00;;;;;-147.14;100.00;58812.66;4948958;28;45344;-58
2023/03/21 15:10:37;;;;;;;;;1.67;1.67;;;;;-147.14;100.00;58812.66;4977459;28;45390;-60
2023/03/21 15:13:15;;;;;;;;;1.00;0.67;;;;;-147.14;100.00;58812.66;4965069;28;45545;-59
2023/03/21 15:15:41;;;;;;;;;1.67;1.67;;;;;-147.14;100.00;58812.66;4974540;28;45521;-59
2023/03/21 15:18:10;;;;;;;;;1.00;1.00;;;;;-147.14;100.00;58812.66;4994003;28;45518;-59
2023/03/21 15:20:37;;;;;;;;;1.00;1.00;;;;;-147.14;100.00;58812.66;4995539;28;45431;-59
2023/03/21 15:23:08;;;;;;;;;1.33;1.33;;;;;-147.14;100.00;58812.66;4979368;28;45316;-59
2023/03/21 15:25:34;;;;;;;;;1.00;1.00;;;;;-147.14;100.00;58812.66;4983687;28;45430;-59
2023/03/21 15:28:01;;;;;;;;;0.00;0.00;;;;;-147.14;100.00;58812.66;4964376;28;46162;-59
2023/03/21 15:30:28;;;;;;;;;0.00;0.00;;;;;-147.14;100.00;58812.66;4979052;28;45279;-59
2023/03/21 15:32:58;;;;;;;;;1.33;1.33;;;;;-147.14;100.00;58812.66;4975535;28;45560;-59
2023/03/21 15:35:44;;;;;;;;;0.33;0.33;;;;;-147.14;100.00;58812.66;4974658;28;45523;-59
2023/03/21 15:38:32;;;;;;;;;0.00;0.00;;;;;-147.14;100.00;58812.66;4973500;28;46321;-59
2023/03/21 15:41:18;;;;;;;;;2.00;2.00;;;;;-147.14;100.00;58812.66;4979209;28;45338;-59
2023/03/21 15:43:48;;;;;;;;;2.33;2.33;;;;;-147.14;100.00;58812.66;4979412;28;45432;-59
2023/03/21 15:46:15;;;;;;;;;3.67;2.67;;;;;-147.14;100.00;58812.66;4961228;28;45488;-58
2023/03/21 15:48:41;;;;;;;;;1.00;1.00;;;;;-147.14;100.00;58812.66;4974245;28;45551;-59
2023/03/21 15:51:13;;;;;;;;;1.67;1.00;;;;;-147.14;100.00;58812.66;4977282;28;45366;-59
2023/03/21 15:53:41;;;;;;;;;2.00;2.00;;;;;-147.14;100.00;58812.66;4962906;28;45454;-58
2023/03/21 15:56:15;;;;;;;;;4.67;3.00;;;;;-147.14;100.00;58812.66;4960601;28;45488;-59
2023/03/21 15:58:46;;;;;;;;;3.00;2.00;;;;;-147.14;100.00;58812.66;4970420;28;47313;-58
2023/03/21 16:01:25;;;;;;;;;2.67;2.00;;;;;-147.14;100.00;58812.66;4968802;28;45517;-58
2023/03/21 16:04:00;;;;;;;;;1.00;1.00;;;;;-147.14;100.00;58812.66;4981750;28;45374;-58
2023/03/21 16:06:32;;;;;;;;;1.00;1.00;;;;;-147.14;100.00;58812.66;4958728;28;45441;-58
2023/03/21 16:09:09;;;;;;;;;3.00;3.00;;;;;-147.14;100.00;58812.66;4979224;28;47156;-58
2023/03/21 16:11:50;;;;;;;;;2.00;2.00;;;;;-147.14;100.00;58812.66;4994968;28;45374;-58
2023/03/21 16:14:18;;;;;;;;;1.00;1.00;;;;;-147.14;100.00;58812.66;4976088;28;45480;-58
2023/03/21 16:16:45;;;;;;;;;2.33;2.33;;;;;-147.14;100.00;58812.66;4981847;28;45600;-59
2023/03/21 16:19:11;;;;;;;;;2.00;2.00;;;;;-147.14;100.00;58812.66;4981228;28;46181;-58
2023/03/21 16:21:37;;;;;;;;;2.67;2.00;;;;;-147.14;100.00;58812.66;4984705;28;45377;-58
2023/03/21 16:24:03;;;;;;;;;1.33;1.33;;;;;-147.14;100.00;58812.66;4989960;28;45445;-58
2023/03/21 16:26:31;;;;;;;;;3.00;3.00;;;;;-147.14;100.00;58812.66;4964155;28;45556;-58
2023/03/21 16:28:57;;;;;;;;;2.67;2.33;;;;;-147.14;100.00;58812.66;4984947;28;46289;-58
2023/03/21 16:31:25;;;;;;;;;2.33;2.33;;;;;-147.14;100.00;58812.66;4976106;28;45434;-59
2023/03/21 16:33:51;;;;;;;;;3.00;3.00;;;;;-147.14;100.00;58812.66;4980046;28;45575;-58
2023/03/21 16:36:39;;;;;;;;;5.00;3.33;;;;;-147.14;100.00;58812.66;4979063;28;45728;-58
2023/03/21 16:39:17;;;;;;;;;4.33;3.00;;;;;-147.14;100.00;58812.66;4975529;28;46321;-58
2023/03/21 16:41:43;;;;;;;;;4.00;4.00;;;;;-147.14;100.00;58812.66;4978956;28;45485;-59
2023/03/21 16:44:09;;;;;;;;;3.00;3.00;;;;;-147.14;100.00;58812.66;4964661;28;45534;-59
2023/03/21 16:46:34;;;;;;;;;3.67;3.67;;;;;-147.14;100.00;58812.66;4978057;28;58023;-59
2023/03/21 16:49:00;;;;;;;;;4.33;3.00;;;;;-147.14;100.00;58812.66;4976960;28;75626;-58
2023/03/21 16:51:34;;;;;;;;;3.67;3.67;;;;;-147.14;100.00;58812.66;4978122;28;44869;-58
2023/03/21 16:54:00;;;;;;;;;5.67;5.67;;;;;-147.14;100.00;58812.66;4984353;28;45462;-59
2023/03/21 16:56:30;;;;;;;;;4.33;3.00;;;;;-147.14;100.00;58812.66;4982758;28;45637;-58
2023/03/21 16:58:56;;;;;;;;;3.00;3.00;;;;;-147.14;100.00;58812.66;4964367;28;46104;-58
2023/03/21 17:01:28;;;;;;;;;3.00;3.00;;;;;-147.14;100.00;58812.66;4965803;28;45492;-62
2023/03/21 17:03:55;;;;;;;;;5.67;3.00;;;;;-147.14;100.00;58812.66;4961375;28;45556;-58
2023/03/21 17:06:23;;;;;;;;;4.00;3.67;;;;;-147.14;100.00;58812.66;4960706;28;45336;-58
2023/03/21 17:08:49;;;;;;;;;3.00;3.00;;;;;-147.14;100.00;58812.66;4959341;28;45932;-58
2023/03/21 17:11:21;;;;;;;;;3.33;3.33;;;;;-147.14;100.00;58812.66;4956952;28;45343;-58
2023/03/21 17:13:50;;;;;;;;;5.00;5.00;;;;;-147.14;100.00;58812.66;4959050;28;45468;-58
2023/03/21 17:16:19;;;;;;;;;3.67;2.00;;;;;-147.14;100.00;58812.66;4942645;28;45449;-58
2023/03/21 17:18:46;;;;;;;;;4.33;3.00;;;;;-147.14;100.00;58812.66;4955763;28;45513;-58